sensor_id;sensor_type;location;lat;lon;timestamp;P1;durP1;ratioP1;P2;durP2;ratioP2
40150;SDS011;25866;52.420;10.640;2022-08-19T00:00:13;10.57;;;5.72;;
40150;SDS011;25866;52.420;10.640;2022-08-19T00:02:40;6.40;;;5.40;;
40150;SDS011;25866;52.420;10.640;2022-08-19T00:05:06;9.15;;;5.25;;
40150;SDS011;25866;52.420;10.640;2022-08-19T00:07:34;8.38;;;5.15;;
40150;SDS011;25866;52.420;10.640;2022-08-19T00:10:02;8.70;;;5.90;;
40150;SDS011;25866;52.420;10.640;2022-08-19T00:12:29;6.15;;;5.07;;
40150;SDS011;25866;52.420;10.640;2022-08-19T00:14:55;7.60;;;5.03;;
40150;SDS011;25866;52.420;10.640;2022-08-19T00:17:21;7.78;;;5.78;;
40150;SDS011;25866;52.420;10.640;2022-08-19T00:19:46;10.63;;;5.63;;
40150;SDS011;25866;52.420;10.640;2022-08-19T00:22:12;7.78;;;5.35;;
40150;SDS011;25866;52.420;10.640;2022-08-19T00:24:38;11.30;;;5.88;;
40150;SDS011;25866;52.420;10.640;2022-08-19T00:27:06;8.95;;;5.45;;
40150;SDS011;25866;52.420;10.640;2022-08-19T00:29:32;8.20;;;5.35;;
40150;SDS011;25866;52.420;10.640;2022-08-19T00:31:58;7.80;;;4.95;;
40150;SDS011;25866;52.420;10.640;2022-08-19T00:34:25;9.05;;;6.13;;
40150;SDS011;25866;52.420;10.640;2022-08-19T00:36:52;8.00;;;5.22;;
40150;SDS011;25866;52.420;10.640;2022-08-19T00:39:19;8.55;;;5.38;;
40150;SDS011;25866;52.420;10.640;2022-08-19T00:41:45;9.23;;;5.25;;
40150;SDS011;25866;52.420;10.640;2022-08-19T00:44:17;7.68;;;5.13;;
40150;SDS011;25866;52.420;10.640;2022-08-19T00:46:46;8.75;;;5.50;;
40150;SDS011;25866;52.420;10.640;2022-08-19T00:52:00;8.20;;;5.47;;
40150;SDS011;25866;52.420;10.640;2022-08-19T00:54:30;8.77;;;5.80;;
40150;SDS011;25866;52.420;10.640;2022-08-19T00:56:58;8.63;;;5.28;;
40150;SDS011;25866;52.420;10.640;2022-08-19T00:59:26;7.38;;;5.20;;
40150;SDS011;25866;52.420;10.640;2022-08-19T01:01:53;11.63;;;5.50;;
40150;SDS011;25866;52.420;10.640;2022-08-19T01:04:19;8.00;;;5.30;;
40150;SDS011;25866;52.420;10.640;2022-08-19T01:06:45;8.68;;;5.22;;
40150;SDS011;25866;52.420;10.640;2022-08-19T01:09:10;8.82;;;5.50;;
40150;SDS011;25866;52.420;10.640;2022-08-19T01:11:38;7.53;;;4.93;;
40150;SDS011;25866;52.420;10.640;2022-08-19T01:14:07;6.50;;;4.78;;
40150;SDS011;25866;52.420;10.640;2022-08-19T01:16:34;8.77;;;5.20;;
40150;SDS011;25866;52.420;10.640;2022-08-19T01:19:01;8.27;;;5.32;;
40150;SDS011;25866;52.420;10.640;2022-08-19T01:21:45;8.35;;;5.25;;
40150;SDS011;25866;52.420;10.640;2022-08-19T01:24:17;7.80;;;5.13;;
40150;SDS011;25866;52.420;10.640;2022-08-19T01:26:43;8.25;;;5.43;;
40150;SDS011;25866;52.420;10.640;2022-08-19T01:29:10;10.68;;;5.40;;
40150;SDS011;25866;52.420;10.640;2022-08-19T01:31:36;6.30;;;5.20;;
40150;SDS011;25866;52.420;10.640;2022-08-19T01:34:04;8.25;;;5.07;;
40150;SDS011;25866;52.420;10.640;2022-08-19T01:39:02;6.50;;;5.15;;
40150;SDS011;25866;52.420;10.640;2022-08-19T01:44:06;8.13;;;5.25;;
40150;SDS011;25866;52.420;10.640;2022-08-19T01:46:33;6.45;;;5.20;;
40150;SDS011;25866;52.420;10.640;2022-08-19T01:48:59;5.88;;;4.75;;
40150;SDS011;25866;52.420;10.640;2022-08-19T01:51:26;8.50;;;5.20;;
40150;SDS011;25866;52.420;10.640;2022-08-19T01:53:53;6.55;;;5.03;;
40150;SDS011;25866;52.420;10.640;2022-08-19T01:56:19;7.20;;;4.68;;
40150;SDS011;25866;52.420;10.640;2022-08-19T01:58:47;8.63;;;5.05;;
40150;SDS011;25866;52.420;10.640;2022-08-19T02:01:16;6.40;;;4.70;;
40150;SDS011;25866;52.420;10.640;2022-08-19T02:06:13;7.72;;;5.28;;
40150;SDS011;25866;52.420;10.640;2022-08-19T02:08:39;6.47;;;4.90;;
40150;SDS011;25866;52.420;10.640;2022-08-19T02:11:05;8.57;;;5.05;;
40150;SDS011;25866;52.420;10.640;2022-08-19T02:13:42;7.82;;;5.55;;
40150;SDS011;25866;52.420;10.640;2022-08-19T02:16:07;12.10;;;6.55;;
40150;SDS011;25866;52.420;10.640;2022-08-19T02:18:33;8.25;;;5.25;;
40150;SDS011;25866;52.420;10.640;2022-08-19T02:20:59;8.43;;;5.35;;
40150;SDS011;25866;52.420;10.640;2022-08-19T02:23:26;7.88;;;5.00;;
40150;SDS011;25866;52.420;10.640;2022-08-19T02:25:52;5.90;;;4.60;;
40150;SDS011;25866;52.420;10.640;2022-08-19T02:28:18;8.52;;;5.57;;
40150;SDS011;25866;52.420;10.640;2022-08-19T02:30:44;10.00;;;5.28;;
40150;SDS011;25866;52.420;10.640;2022-08-19T02:33:11;10.00;;;5.28;;
40150;SDS011;25866;52.420;10.640;2022-08-19T02:35:36;12.10;;;5.53;;
40150;SDS011;25866;52.420;10.640;2022-08-19T02:38:05;9.60;;;5.35;;
40150;SDS011;25866;52.420;10.640;2022-08-19T02:40:50;7.72;;;5.15;;
40150;SDS011;25866;52.420;10.640;2022-08-19T02:43:17;8.32;;;5.03;;
40150;SDS011;25866;52.420;10.640;2022-08-19T02:45:45;8.65;;;4.78;;
40150;SDS011;25866;52.420;10.640;2022-08-19T02:48:13;7.22;;;4.97;;
40150;SDS011;25866;52.420;10.640;2022-08-19T02:50:42;6.05;;;4.85;;
40150;SDS011;25866;52.420;10.640;2022-08-19T02:53:08;9.65;;;5.10;;
40150;SDS011;25866;52.420;10.640;2022-08-19T02:55:53;8.05;;;5.10;;
40150;SDS011;25866;52.420;10.640;2022-08-19T02:58:19;8.27;;;5.03;;
40150;SDS011;25866;52.420;10.640;2022-08-19T03:00:50;8.55;;;5.03;;
40150;SDS011;25866;52.420;10.640;2022-08-19T03:03:18;8.82;;;5.20;;
40150;SDS011;25866;52.420;10.640;2022-08-19T03:05:46;6.05;;;4.93;;
40150;SDS011;25866;52.420;10.640;2022-08-19T03:08:12;12.55;;;5.63;;
40150;SDS011;25866;52.420;10.640;2022-08-19T03:10:42;9.82;;;4.88;;
40150;SDS011;25866;52.420;10.640;2022-08-19T03:13:13;5.57;;;4.78;;
40150;SDS011;25866;52.420;10.640;2022-08-19T03:15:43;9.48;;;5.05;;
40150;SDS011;25866;52.420;10.640;2022-08-19T03:18:10;6.82;;;4.63;;
40150;SDS011;25866;52.420;10.640;2022-08-19T03:20:40;9.20;;;5.15;;
40150;SDS011;25866;52.420;10.640;2022-08-19T03:23:10;7.70;;;4.93;;
40150;SDS011;25866;52.420;10.640;2022-08-19T03:25:43;7.70;;;5.18;;
40150;SDS011;25866;52.420;10.640;2022-08-19T03:28:11;6.78;;;4.47;;
40150;SDS011;25866;52.420;10.640;2022-08-19T03:30:38;9.05;;;5.43;;
40150;SDS011;25866;52.420;10.640;2022-08-19T03:33:05;10.30;;;4.80;;
40150;SDS011;25866;52.420;10.640;2022-08-19T03:35:36;7.95;;;4.75;;
40150;SDS011;25866;52.420;10.640;2022-08-19T03:38:05;7.82;;;4.90;;
40150;SDS011;25866;52.420;10.640;2022-08-19T03:40:32;10.05;;;4.97;;
40150;SDS011;25866;52.420;10.640;2022-08-19T03:43:01;7.68;;;5.07;;
40150;SDS011;25866;52.420;10.640;2022-08-19T03:45:29;10.05;;;4.53;;
40150;SDS011;25866;52.420;10.640;2022-08-19T03:47:55;7.80;;;4.63;;
40150;SDS011;25866;52.420;10.640;2022-08-19T03:50:20;10.55;;;5.35;;
40150;SDS011;25866;52.420;10.640;2022-08-19T03:52:50;7.57;;;5.00;;
40150;SDS011;25866;52.420;10.640;2022-08-19T03:55:18;7.97;;;4.95;;
40150;SDS011;25866;52.420;10.640;2022-08-19T03:57:44;12.27;;;5.20;;
40150;SDS011;25866;52.420;10.640;2022-08-19T04:00:12;8.02;;;4.43;;
40150;SDS011;25866;52.420;10.640;2022-08-19T04:02:38;7.85;;;4.90;;
40150;SDS011;25866;52.420;10.640;2022-08-19T04:05:07;9.25;;;4.75;;
40150;SDS011;25866;52.420;10.640;2022-08-19T04:07:33;8.88;;;4.55;;
40150;SDS011;25866;52.420;10.640;2022-08-19T04:09:59;6.45;;;4.43;;
40150;SDS011;25866;52.420;10.640;2022-08-19T04:12:25;6.03;;;4.38;;
40150;SDS011;25866;52.420;10.640;2022-08-19T04:15:03;10.70;;;4.60;;
40150;SDS011;25866;52.420;10.640;2022-08-19T04:17:31;7.65;;;4.88;;
40150;SDS011;25866;52.420;10.640;2022-08-19T04:19:57;5.75;;;4.18;;
40150;SDS011;25866;52.420;10.640;2022-08-19T04:22:22;11.10;;;4.85;;
40150;SDS011;25866;52.420;10.640;2022-08-19T04:24:55;7.20;;;4.72;;
40150;SDS011;25866;52.420;10.640;2022-08-19T04:27:21;6.57;;;4.40;;
40150;SDS011;25866;52.420;10.640;2022-08-19T04:29:46;6.85;;;4.30;;
40150;SDS011;25866;52.420;10.640;2022-08-19T04:32:12;6.55;;;4.50;;
40150;SDS011;25866;52.420;10.640;2022-08-19T04:34:40;8.32;;;4.45;;
40150;SDS011;25866;52.420;10.640;2022-08-19T04:37:08;9.20;;;4.47;;
40150;SDS011;25866;52.420;10.640;2022-08-19T04:39:37;7.30;;;4.70;;
40150;SDS011;25866;52.420;10.640;2022-08-19T04:42:22;6.63;;;4.72;;
40150;SDS011;25866;52.420;10.640;2022-08-19T04:45:07;7.20;;;4.22;;
40150;SDS011;25866;52.420;10.640;2022-08-19T04:47:42;5.45;;;3.97;;
40150;SDS011;25866;52.420;10.640;2022-08-19T04:50:09;5.90;;;3.92;;
40150;SDS011;25866;52.420;10.640;2022-08-19T04:52:36;9.00;;;4.47;;
40150;SDS011;25866;52.420;10.640;2022-08-19T04:55:09;7.63;;;4.30;;
40150;SDS011;25866;52.420;10.640;2022-08-19T04:57:35;9.18;;;5.00;;
40150;SDS011;25866;52.420;10.640;2022-08-19T05:00:05;5.38;;;4.20;;
40150;SDS011;25866;52.420;10.640;2022-08-19T05:02:32;7.40;;;4.88;;
40150;SDS011;25866;52.420;10.640;2022-08-19T05:05:05;7.63;;;4.40;;
40150;SDS011;25866;52.420;10.640;2022-08-19T05:07:31;7.03;;;5.00;;
40150;SDS011;25866;52.420;10.640;2022-08-19T05:09:57;5.80;;;4.32;;
40150;SDS011;25866;52.420;10.640;2022-08-19T05:12:22;4.72;;;4.05;;
40150;SDS011;25866;52.420;10.640;2022-08-19T05:14:49;10.55;;;5.07;;
40150;SDS011;25866;52.420;10.640;2022-08-19T05:17:14;7.78;;;4.68;;
40150;SDS011;25866;52.420;10.640;2022-08-19T05:19:40;7.47;;;4.90;;
40150;SDS011;25866;52.420;10.640;2022-08-19T05:22:35;8.02;;;4.97;;
40150;SDS011;25866;52.420;10.640;2022-08-19T05:25:09;8.00;;;5.03;;
40150;SDS011;25866;52.420;10.640;2022-08-19T05:27:37;9.02;;;5.00;;
40150;SDS011;25866;52.420;10.640;2022-08-19T05:30:04;5.68;;;4.35;;
40150;SDS011;25866;52.420;10.640;2022-08-19T05:32:30;6.03;;;4.38;;
40150;SDS011;25866;52.420;10.640;2022-08-19T05:35:02;6.57;;;4.82;;
40150;SDS011;25866;52.420;10.640;2022-08-19T05:37:29;6.00;;;4.57;;
40150;SDS011;25866;52.420;10.640;2022-08-19T05:39:55;6.75;;;4.85;;
40150;SDS011;25866;52.420;10.640;2022-08-19T05:42:23;5.22;;;4.22;;
40150;SDS011;25866;52.420;10.640;2022-08-19T05:44:50;7.18;;;4.93;;
40150;SDS011;25866;52.420;10.640;2022-08-19T05:47:16;9.35;;;5.38;;
40150;SDS011;25866;52.420;10.640;2022-08-19T05:49:44;7.82;;;5.05;;
40150;SDS011;25866;52.420;10.640;2022-08-19T05:52:10;8.07;;;5.13;;
40150;SDS011;25866;52.420;10.640;2022-08-19T05:54:40;9.70;;;5.15;;
40150;SDS011;25866;52.420;10.640;2022-08-19T05:57:09;7.53;;;4.97;;
40150;SDS011;25866;52.420;10.640;2022-08-19T05:59:35;8.27;;;4.72;;
40150;SDS011;25866;52.420;10.640;2022-08-19T06:02:01;6.38;;;4.88;;
40150;SDS011;25866;52.420;10.640;2022-08-19T06:04:28;7.82;;;5.95;;
40150;SDS011;25866;52.420;10.640;2022-08-19T06:06:54;7.10;;;5.20;;
40150;SDS011;25866;52.420;10.640;2022-08-19T06:09:21;7.75;;;5.32;;
40150;SDS011;25866;52.420;10.640;2022-08-19T06:11:49;6.60;;;4.45;;
40150;SDS011;25866;52.420;10.640;2022-08-19T06:14:21;6.85;;;4.82;;
40150;SDS011;25866;52.420;10.640;2022-08-19T06:16:49;6.88;;;4.88;;
40150;SDS011;25866;52.420;10.640;2022-08-19T06:19:17;9.45;;;5.50;;
40150;SDS011;25866;52.420;10.640;2022-08-19T06:21:45;7.75;;;5.28;;
40150;SDS011;25866;52.420;10.640;2022-08-19T06:24:13;9.30;;;5.30;;
40150;SDS011;25866;52.420;10.640;2022-08-19T06:26:44;10.20;;;5.53;;
40150;SDS011;25866;52.420;10.640;2022-08-19T06:29:12;7.13;;;5.18;;
40150;SDS011;25866;52.420;10.640;2022-08-19T06:31:43;5.75;;;4.93;;
40150;SDS011;25866;52.420;10.640;2022-08-19T06:34:10;7.20;;;4.72;;
40150;SDS011;25866;52.420;10.640;2022-08-19T06:39:10;6.45;;;5.25;;
40150;SDS011;25866;52.420;10.640;2022-08-19T06:41:38;6.60;;;5.10;;
40150;SDS011;25866;52.420;10.640;2022-08-19T06:44:11;4.97;;;4.47;;
40150;SDS011;25866;52.420;10.640;2022-08-19T06:49:11;6.07;;;5.07;;
40150;SDS011;25866;52.420;10.640;2022-08-19T06:51:39;9.77;;;5.35;;
40150;SDS011;25866;52.420;10.640;2022-08-19T06:54:06;7.40;;;4.75;;
40150;SDS011;25866;52.420;10.640;2022-08-19T06:56:47;8.90;;;4.53;;
40150;SDS011;25866;52.420;10.640;2022-08-19T06:59:14;10.55;;;4.60;;
40150;SDS011;25866;52.420;10.640;2022-08-19T07:01:44;6.55;;;4.10;;
40150;SDS011;25866;52.420;10.640;2022-08-19T07:04:13;7.88;;;4.38;;
40150;SDS011;25866;52.420;10.640;2022-08-19T07:09:14;6.82;;;4.43;;
40150;SDS011;25866;52.420;10.640;2022-08-19T07:11:49;6.63;;;4.60;;
40150;SDS011;25866;52.420;10.640;2022-08-19T07:14:18;6.85;;;4.15;;
40150;SDS011;25866;52.420;10.640;2022-08-19T07:16:49;5.65;;;4.22;;
40150;SDS011;25866;52.420;10.640;2022-08-19T07:19:16;6.60;;;3.80;;
40150;SDS011;25866;52.420;10.640;2022-08-19T07:21:44;7.18;;;4.47;;
40150;SDS011;25866;52.420;10.640;2022-08-19T07:24:12;6.38;;;4.00;;
40150;SDS011;25866;52.420;10.640;2022-08-19T07:26:43;6.00;;;4.40;;
40150;SDS011;25866;52.420;10.640;2022-08-19T07:29:10;8.88;;;4.22;;
40150;SDS011;25866;52.420;10.640;2022-08-19T07:31:36;5.00;;;3.78;;
40150;SDS011;25866;52.420;10.640;2022-08-19T07:34:06;6.90;;;4.07;;
40150;SDS011;25866;52.420;10.640;2022-08-19T07:36:36;4.68;;;3.90;;
40150;SDS011;25866;52.420;10.640;2022-08-19T07:39:13;6.45;;;4.20;;
40150;SDS011;25866;52.420;10.640;2022-08-19T07:41:42;7.18;;;4.32;;
40150;SDS011;25866;52.420;10.640;2022-08-19T07:44:08;6.22;;;4.30;;
40150;SDS011;25866;52.420;10.640;2022-08-19T07:46:35;6.97;;;3.55;;
40150;SDS011;25866;52.420;10.640;2022-08-19T07:49:04;6.43;;;4.05;;
40150;SDS011;25866;52.420;10.640;2022-08-19T07:51:32;4.55;;;3.75;;
40150;SDS011;25866;52.420;10.640;2022-08-19T07:53:58;5.82;;;4.40;;
40150;SDS011;25866;52.420;10.640;2022-08-19T07:56:26;7.90;;;4.28;;
40150;SDS011;25866;52.420;10.640;2022-08-19T07:58:52;6.75;;;3.92;;
40150;SDS011;25866;52.420;10.640;2022-08-19T08:01:21;12.63;;;4.30;;
40150;SDS011;25866;52.420;10.640;2022-08-19T08:03:50;7.38;;;4.20;;
40150;SDS011;25866;52.420;10.640;2022-08-19T08:06:36;5.82;;;4.10;;
40150;SDS011;25866;52.420;10.640;2022-08-19T08:09:28;7.80;;;4.30;;
40150;SDS011;25866;52.420;10.640;2022-08-19T08:12:06;5.03;;;3.90;;
40150;SDS011;25866;52.420;10.640;2022-08-19T08:14:37;6.93;;;3.88;;
40150;SDS011;25866;52.420;10.640;2022-08-19T08:17:08;6.22;;;3.88;;
40150;SDS011;25866;52.420;10.640;2022-08-19T08:19:35;7.70;;;4.57;;
40150;SDS011;25866;52.420;10.640;2022-08-19T08:22:01;7.13;;;3.80;;
40150;SDS011;25866;52.420;10.640;2022-08-19T08:24:29;9.23;;;4.05;;
40150;SDS011;25866;52.420;10.640;2022-08-19T08:29:31;7.47;;;4.55;;
40150;SDS011;25866;52.420;10.640;2022-08-19T08:31:58;5.53;;;3.70;;
40150;SDS011;25866;52.420;10.640;2022-08-19T08:34:23;5.53;;;3.90;;
40150;SDS011;25866;52.420;10.640;2022-08-19T08:39:34;6.05;;;3.60;;
40150;SDS011;25866;52.420;10.640;2022-08-19T08:44:48;7.95;;;3.65;;
40150;SDS011;25866;52.420;10.640;2022-08-19T08:47:25;4.97;;;3.35;;
40150;SDS011;25866;52.420;10.640;2022-08-19T08:49:58;8.88;;;3.58;;
40150;SDS011;25866;52.420;10.640;2022-08-19T08:52:29;8.38;;;3.83;;
40150;SDS011;25866;52.420;10.640;2022-08-19T08:55:00;4.55;;;3.08;;
40150;SDS011;25866;52.420;10.640;2022-08-19T08:57:49;3.80;;;3.17;;
40150;SDS011;25866;52.420;10.640;2022-08-19T09:00:21;5.72;;;3.55;;
40150;SDS011;25866;52.420;10.640;2022-08-19T09:02:54;5.70;;;3.55;;
40150;SDS011;25866;52.420;10.640;2022-08-19T09:05:22;5.30;;;3.70;;
40150;SDS011;25866;52.420;10.640;2022-08-19T09:10:36;7.28;;;4.07;;
40150;SDS011;25866;52.420;10.640;2022-08-19T09:15:53;6.50;;;3.47;;
40150;SDS011;25866;52.420;10.640;2022-08-19T09:18:25;4.13;;;3.33;;
40150;SDS011;25866;52.420;10.640;2022-08-19T09:20:50;5.65;;;3.20;;
40150;SDS011;25866;52.420;10.640;2022-08-19T09:23:16;4.53;;;3.47;;
40150;SDS011;25866;52.420;10.640;2022-08-19T09:25:42;4.63;;;3.50;;
40150;SDS011;25866;52.420;10.640;2022-08-19T09:28:09;4.43;;;3.22;;
40150;SDS011;25866;52.420;10.640;2022-08-19T09:30:40;6.18;;;3.85;;
40150;SDS011;25866;52.420;10.640;2022-08-19T09:33:06;4.18;;;3.15;;
40150;SDS011;25866;52.420;10.640;2022-08-19T09:35:32;6.32;;;3.53;;
40150;SDS011;25866;52.420;10.640;2022-08-19T09:40:46;3.97;;;3.45;;
40150;SDS011;25866;52.420;10.640;2022-08-19T09:43:12;5.78;;;3.63;;
40150;SDS011;25866;52.420;10.640;2022-08-19T09:45:37;5.90;;;3.40;;
40150;SDS011;25866;52.420;10.640;2022-08-19T09:48:03;4.70;;;3.38;;
40150;SDS011;25866;52.420;10.640;2022-08-19T09:50:29;6.75;;;3.47;;
40150;SDS011;25866;52.420;10.640;2022-08-19T09:53:00;4.60;;;3.28;;
40150;SDS011;25866;52.420;10.640;2022-08-19T09:55:26;5.15;;;2.80;;
40150;SDS011;25866;52.420;10.640;2022-08-19T09:57:54;5.38;;;3.42;;
40150;SDS011;25866;52.420;10.640;2022-08-19T10:00:19;3.53;;;3.03;;
40150;SDS011;25866;52.420;10.640;2022-08-19T10:02:45;4.63;;;2.97;;
40150;SDS011;25866;52.420;10.640;2022-08-19T10:05:11;4.50;;;3.42;;
40150;SDS011;25866;52.420;10.640;2022-08-19T10:10:25;7.72;;;3.50;;
40150;SDS011;25866;52.420;10.640;2022-08-19T10:12:51;4.88;;;3.33;;
40150;SDS011;25866;52.420;10.640;2022-08-19T10:15:17;5.00;;;3.53;;
40150;SDS011;25866;52.420;10.640;2022-08-19T10:17:48;4.70;;;3.25;;
40150;SDS011;25866;52.420;10.640;2022-08-19T10:20:13;5.72;;;3.80;;
40150;SDS011;25866;52.420;10.640;2022-08-19T10:22:39;4.55;;;4.00;;
40150;SDS011;25866;52.420;10.640;2022-08-19T10:25:06;3.90;;;3.50;;
40150;SDS011;25866;52.420;10.640;2022-08-19T10:27:32;7.00;;;3.90;;
40150;SDS011;25866;52.420;10.640;2022-08-19T10:29:58;9.18;;;4.68;;
40150;SDS011;25866;52.420;10.640;2022-08-19T10:32:24;7.75;;;4.40;;
40150;SDS011;25866;52.420;10.640;2022-08-19T10:34:50;6.45;;;4.10;;
40150;SDS011;25866;52.420;10.640;2022-08-19T10:37:17;6.35;;;4.15;;
40150;SDS011;25866;52.420;10.640;2022-08-19T10:39:45;5.55;;;4.05;;
40150;SDS011;25866;52.420;10.640;2022-08-19T10:42:12;8.00;;;4.10;;
40150;SDS011;25866;52.420;10.640;2022-08-19T10:44:39;7.65;;;3.45;;
40150;SDS011;25866;52.420;10.640;2022-08-19T10:47:05;3.88;;;3.17;;
40150;SDS011;25866;52.420;10.640;2022-08-19T10:49:32;4.43;;;3.22;;
40150;SDS011;25866;52.420;10.640;2022-08-19T10:52:18;5.85;;;3.67;;
40150;SDS011;25866;52.420;10.640;2022-08-19T10:54:59;4.22;;;3.33;;
40150;SDS011;25866;52.420;10.640;2022-08-19T10:57:47;4.80;;;3.75;;
40150;SDS011;25866;52.420;10.640;2022-08-19T11:00:13;5.82;;;3.65;;
40150;SDS011;25866;52.420;10.640;2022-08-19T11:02:39;4.90;;;3.75;;
40150;SDS011;25866;52.420;10.640;2022-08-19T11:05:06;5.47;;;3.85;;
40150;SDS011;25866;52.420;10.640;2022-08-19T11:07:36;4.32;;;3.50;;
40150;SDS011;25866;52.420;10.640;2022-08-19T11:10:05;5.00;;;3.78;;
40150;SDS011;25866;52.420;10.640;2022-08-19T11:12:33;4.95;;;3.28;;
40150;SDS011;25866;52.420;10.640;2022-08-19T11:15:01;6.43;;;3.65;;
40150;SDS011;25866;52.420;10.640;2022-08-19T11:17:27;5.80;;;3.90;;
40150;SDS011;25866;52.420;10.640;2022-08-19T11:19:54;5.75;;;4.05;;
40150;SDS011;25866;52.420;10.640;2022-08-19T11:22:20;5.28;;;3.85;;
40150;SDS011;25866;52.420;10.640;2022-08-19T11:24:45;6.75;;;4.82;;
40150;SDS011;25866;52.420;10.640;2022-08-19T11:27:11;7.70;;;4.63;;
40150;SDS011;25866;52.420;10.640;2022-08-19T11:29:37;6.40;;;4.28;;
40150;SDS011;25866;52.420;10.640;2022-08-19T11:32:05;9.73;;;4.10;;
40150;SDS011;25866;52.420;10.640;2022-08-19T11:34:32;6.47;;;4.00;;
40150;SDS011;25866;52.420;10.640;2022-08-19T11:36:59;6.60;;;4.28;;
40150;SDS011;25866;52.420;10.640;2022-08-19T11:39:30;5.00;;;3.58;;
40150;SDS011;25866;52.420;10.640;2022-08-19T11:41:57;4.55;;;3.60;;
40150;SDS011;25866;52.420;10.640;2022-08-19T11:44:24;5.78;;;4.28;;
40150;SDS011;25866;52.420;10.640;2022-08-19T11:46:51;7.70;;;4.00;;
40150;SDS011;25866;52.420;10.640;2022-08-19T11:49:18;6.07;;;4.10;;
40150;SDS011;25866;52.420;10.640;2022-08-19T11:51:46;7.22;;;4.10;;
40150;SDS011;25866;52.420;10.640;2022-08-19T11:54:13;4.60;;;3.60;;
40150;SDS011;25866;52.420;10.640;2022-08-19T11:56:40;4.53;;;3.42;;
40150;SDS011;25866;52.420;10.640;2022-08-19T11:59:09;6.18;;;3.97;;
40150;SDS011;25866;52.420;10.640;2022-08-19T12:01:35;5.82;;;4.45;;
40150;SDS011;25866;52.420;10.640;2022-08-19T12:04:02;6.40;;;4.57;;
40150;SDS011;25866;52.420;10.640;2022-08-19T12:06:30;6.05;;;3.70;;
40150;SDS011;25866;52.420;10.640;2022-08-19T12:09:03;5.32;;;3.75;;
40150;SDS011;25866;52.420;10.640;2022-08-19T12:11:30;3.90;;;3.33;;
40150;SDS011;25866;52.420;10.640;2022-08-19T12:13:56;4.63;;;3.42;;
40150;SDS011;25866;52.420;10.640;2022-08-19T12:16:24;5.38;;;3.88;;
40150;SDS011;25866;52.420;10.640;2022-08-19T12:18:52;3.78;;;3.33;;
40150;SDS011;25866;52.420;10.640;2022-08-19T12:21:21;4.68;;;3.47;;
40150;SDS011;25866;52.420;10.640;2022-08-19T12:23:50;3.42;;;2.90;;
40150;SDS011;25866;52.420;10.640;2022-08-19T12:26:16;4.57;;;3.40;;
40150;SDS011;25866;52.420;10.640;2022-08-19T12:28:42;4.38;;;3.25;;
40150;SDS011;25866;52.420;10.640;2022-08-19T12:31:09;4.38;;;3.55;;
40150;SDS011;25866;52.420;10.640;2022-08-19T12:33:39;3.13;;;2.83;;
40150;SDS011;25866;52.420;10.640;2022-08-19T12:36:06;3.80;;;3.33;;
40150;SDS011;25866;52.420;10.640;2022-08-19T12:38:34;3.65;;;3.13;;
40150;SDS011;25866;52.420;10.640;2022-08-19T12:41:03;4.28;;;3.42;;
40150;SDS011;25866;52.420;10.640;2022-08-19T12:43:31;6.32;;;4.10;;
40150;SDS011;25866;52.420;10.640;2022-08-19T12:45:57;5.20;;;3.38;;
40150;SDS011;25866;52.420;10.640;2022-08-19T12:48:23;6.80;;;3.75;;
40150;SDS011;25866;52.420;10.640;2022-08-19T12:50:51;4.85;;;3.05;;
40150;SDS011;25866;52.420;10.640;2022-08-19T12:53:16;4.40;;;3.40;;
40150;SDS011;25866;52.420;10.640;2022-08-19T12:55:42;7.10;;;3.40;;
40150;SDS011;25866;52.420;10.640;2022-08-19T12:58:08;3.58;;;2.92;;
40150;SDS011;25866;52.420;10.640;2022-08-19T13:00:36;5.18;;;3.45;;
40150;SDS011;25866;52.420;10.640;2022-08-19T13:03:01;3.80;;;3.08;;
40150;SDS011;25866;52.420;10.640;2022-08-19T13:05:29;4.70;;;3.92;;
40150;SDS011;25866;52.420;10.640;2022-08-19T13:07:56;3.92;;;3.45;;
40150;SDS011;25866;52.420;10.640;2022-08-19T13:10:26;3.85;;;3.38;;
40150;SDS011;25866;52.420;10.640;2022-08-19T13:13:00;3.80;;;3.00;;
40150;SDS011;25866;52.420;10.640;2022-08-19T13:15:32;6.60;;;3.42;;
40150;SDS011;25866;52.420;10.640;2022-08-19T13:17:59;4.70;;;3.53;;
40150;SDS011;25866;52.420;10.640;2022-08-19T13:20:26;5.28;;;3.78;;
40150;SDS011;25866;52.420;10.640;2022-08-19T13:22:52;4.70;;;3.58;;
40150;SDS011;25866;52.420;10.640;2022-08-19T13:25:19;4.30;;;3.40;;
40150;SDS011;25866;52.420;10.640;2022-08-19T13:27:46;5.50;;;3.30;;
40150;SDS011;25866;52.420;10.640;2022-08-19T13:33:01;6.70;;;3.72;;
40150;SDS011;25866;52.420;10.640;2022-08-19T13:38:16;3.92;;;3.40;;
40150;SDS011;25866;52.420;10.640;2022-08-19T13:40:45;4.20;;;3.20;;
40150;SDS011;25866;52.420;10.640;2022-08-19T13:43:12;3.88;;;3.33;;
40150;SDS011;25866;52.420;10.640;2022-08-19T13:45:38;4.80;;;3.40;;
40150;SDS011;25866;52.420;10.640;2022-08-19T13:48:05;5.45;;;3.95;;
40150;SDS011;25866;52.420;10.640;2022-08-19T13:50:33;4.28;;;3.55;;
40150;SDS011;25866;52.420;10.640;2022-08-19T13:53:04;3.72;;;3.25;;
40150;SDS011;25866;52.420;10.640;2022-08-19T13:55:30;3.65;;;3.25;;
40150;SDS011;25866;52.420;10.640;2022-08-19T13:57:56;4.72;;;3.47;;
40150;SDS011;25866;52.420;10.640;2022-08-19T14:00:25;4.78;;;3.30;;
40150;SDS011;25866;52.420;10.640;2022-08-19T14:02:52;4.82;;;3.80;;
40150;SDS011;25866;52.420;10.640;2022-08-19T14:05:20;4.38;;;3.53;;
40150;SDS011;25866;52.420;10.640;2022-08-19T14:07:46;5.32;;;3.55;;
40150;SDS011;25866;52.420;10.640;2022-08-19T14:10:14;3.63;;;3.33;;
40150;SDS011;25866;52.420;10.640;2022-08-19T14:12:41;5.82;;;3.90;;
40150;SDS011;25866;52.420;10.640;2022-08-19T14:15:08;3.75;;;3.30;;
40150;SDS011;25866;52.420;10.640;2022-08-19T14:17:40;10.55;;;3.88;;
40150;SDS011;25866;52.420;10.640;2022-08-19T14:20:08;3.63;;;3.22;;
40150;SDS011;25866;52.420;10.640;2022-08-19T14:22:36;4.10;;;3.60;;
40150;SDS011;25866;52.420;10.640;2022-08-19T14:25:05;5.20;;;3.80;;
40150;SDS011;25866;52.420;10.640;2022-08-19T14:27:33;5.30;;;3.72;;
40150;SDS011;25866;52.420;10.640;2022-08-19T14:30:04;3.65;;;3.20;;
40150;SDS011;25866;52.420;10.640;2022-08-19T14:32:32;4.03;;;3.53;;
40150;SDS011;25866;52.420;10.640;2022-08-19T14:34:59;4.32;;;3.30;;
40150;SDS011;25866;52.420;10.640;2022-08-19T14:37:25;4.35;;;3.28;;
40150;SDS011;25866;52.420;10.640;2022-08-19T14:39:50;4.07;;;3.35;;
40150;SDS011;25866;52.420;10.640;2022-08-19T14:42:16;4.57;;;3.53;;
40150;SDS011;25866;52.420;10.640;2022-08-19T14:44:42;3.88;;;3.20;;
40150;SDS011;25866;52.420;10.640;2022-08-19T14:47:08;7.85;;;3.30;;
40150;SDS011;25866;52.420;10.640;2022-08-19T14:49:34;5.30;;;3.30;;
40150;SDS011;25866;52.420;10.640;2022-08-19T14:52:03;3.83;;;3.25;;
40150;SDS011;25866;52.420;10.640;2022-08-19T14:54:29;3.70;;;3.10;;
40150;SDS011;25866;52.420;10.640;2022-08-19T14:56:55;5.75;;;3.03;;
40150;SDS011;25866;52.420;10.640;2022-08-19T14:59:21;4.15;;;3.10;;
40150;SDS011;25866;52.420;10.640;2022-08-19T15:01:48;4.57;;;3.08;;
40150;SDS011;25866;52.420;10.640;2022-08-19T15:04:13;4.28;;;3.58;;
40150;SDS011;25866;52.420;10.640;2022-08-19T15:06:39;4.97;;;3.38;;
40150;SDS011;25866;52.420;10.640;2022-08-19T15:09:07;5.50;;;4.30;;
40150;SDS011;25866;52.420;10.640;2022-08-19T15:11:33;6.57;;;3.80;;
40150;SDS011;25866;52.420;10.640;2022-08-19T15:13:59;4.80;;;3.17;;
40150;SDS011;25866;52.420;10.640;2022-08-19T15:16:26;3.72;;;3.42;;
40150;SDS011;25866;52.420;10.640;2022-08-19T15:18:53;3.30;;;3.00;;
40150;SDS011;25866;52.420;10.640;2022-08-19T15:21:22;5.63;;;3.20;;